Time;durP1;ratioP1;P1;durP2;ratioP2;P2;SDS_P1;SDS_P2;PMS_P1;PMS_P2;Temp;Humidity;BMP_temperature;BMP_pressure;BME280_temperature;BME280_humidity;BME280_pressure;Samples;Min_cycle;Max_cycle;Signal;HPM_P1;HPM_P2
2022/11/30 00:00:42;;;;;;;;;5.00;4.00;;;;;20.18;56.68;101953.89;105655;1279;19308;-68
2022/11/30 00:03:20;;;;;;;;;4.00;4.00;;;;;20.19;56.61;101950.53;105661;1295;20729;-69
2022/11/30 00:05:48;;;;;;;;;7.50;5.00;;;;;20.18;56.51;101955.27;105658;1297;20192;-68
2022/11/30 00:08:15;;;;;;;;;5.00;4.50;;;;;20.19;56.74;101955.63;105649;1292;22550;-69
2022/11/30 00:10:43;;;;;;;;;4.00;4.00;;;;;20.18;56.48;101960.37;105749;1297;23628;-69
2022/11/30 00:13:11;;;;;;;;;2.00;2.00;;;;;20.18;56.61;101958.79;105680;1294;22722;-68
2022/11/30 00:15:39;;;;;;;;;4.50;4.00;;;;;20.17;56.57;101959.41;105610;1282;19232;-68
2022/11/30 00:18:07;;;;;;;;;3.00;3.00;;;;;20.17;56.61;101954.71;105573;1287;155855;-68
2022/11/30 00:20:34;;;;;;;;;3.00;3.00;;;;;20.17;56.46;101963.02;105648;1279;23142;-68
2022/11/30 00:23:02;;;;;;;;;4.50;2.00;;;;;20.17;56.55;101966.52;105681;1279;19174;-68
2022/11/30 00:25:29;;;;;;;;;4.00;4.00;;;;;20.16;56.42;101966.55;105706;1280;19606;-67
2022/11/30 00:27:56;;;;;;;;;;;;;;;20.17;56.48;101967.36;105657;1285;24715;-69
2022/11/30 00:30:24;;;;;;;;;4.00;4.00;;;;;20.18;56.53;101965.33;105663;1272;19092;-68
2022/11/30 00:32:52;;;;;;;;;6.00;5.00;;;;;20.17;56.49;101963.64;105687;1297;19134;-68
2022/11/30 00:35:19;;;;;;;;;5.00;4.00;;;;;20.17;56.36;101963.95;105653;1296;20083;-68
2022/11/30 00:37:47;;;;;;;;;4.00;4.00;;;;;20.17;56.20;101967.77;105720;1300;19305;-69
2022/11/30 00:40:14;;;;;;;;;3.00;2.00;;;;;20.16;56.55;101965.50;105631;1294;19482;-68
2022/11/30 00:42:41;;;;;;;;;4.00;4.00;;;;;20.17;56.52;101969.98;105681;1297;23968;-69
2022/11/30 00:45:09;;;;;;;;;2.00;2.00;;;;;20.16;56.53;101970.05;105686;1297;19166;-68
2022/11/30 00:47:36;;;;;;;;;2.00;2.00;;;;;20.15;56.34;101968.43;105659;1279;19476;-68
2022/11/30 00:50:04;;;;;;;;;4.00;4.00;;;;;20.16;56.29;101971.13;105641;1272;22745;-70
2022/11/30 00:52:31;;;;;;;;;4.00;4.00;;;;;20.15;56.41;101964.65;105694;1297;19132;-68
2022/11/30 00:54:59;;;;;;;;;4.00;2.00;;;;;20.16;56.28;101968.95;105685;1289;19354;-68
2022/11/30 00:57:26;;;;;;;;;2.00;2.00;;;;;20.15;56.35;101970.33;105686;1302;20096;-66
2022/11/30 00:59:53;;;;;;;;;4.00;4.00;;;;;20.16;56.40;101973.85;105592;1267;19656;-67
2022/11/30 01:02:21;;;;;;;;;4.00;2.00;;;;;20.15;56.31;101971.04;105649;1296;22818;-67
2022/11/30 01:04:48;;;;;;;;;4.00;4.00;;;;;20.15;56.19;101976.45;105718;1301;21698;-68
2022/11/30 01:07:16;;;;;;;;;2.00;2.00;;;;;20.14;56.08;101974.20;105672;1279;21434;-68
2022/11/30 01:09:43;;;;;;;;;4.00;4.00;;;;;20.14;56.20;101974.77;105665;1287;19275;-69
2022/11/30 01:12:10;;;;;;;;;4.00;2.00;;;;;20.14;56.07;101975.45;105690;1280;20085;-68
2022/11/30 01:14:38;;;;;;;;;7.00;4.00;;;;;20.13;56.20;101981.70;105684;1295;23733;-69
2022/11/30 01:17:05;;;;;;;;;2.00;2.00;;;;;20.13;56.12;101987.86;105707;1288;20798;-69
2022/11/30 01:19:33;;;;;;;;;4.00;4.00;;;;;20.13;56.01;101981.43;105707;1297;21400;-68
2022/11/30 01:22:00;;;;;;;;;5.00;5.00;;;;;20.14;55.99;101986.41;105665;1279;19145;-69
2022/11/30 01:24:28;;;;;;;;;4.00;4.00;;;;;20.14;56.10;101984.95;105668;1288;19342;-71
2022/11/30 01:26:55;;;;;;;;;4.00;4.00;;;;;20.13;56.05;101985.55;105683;1298;20478;-69
2022/11/30 01:29:22;;;;;;;;;5.00;4.50;;;;;20.13;55.94;101988.88;105655;1278;23458;-69
2022/11/30 01:31:50;;;;;;;;;4.00;4.00;;;;;20.14;56.02;101990.73;105716;1297;21693;-68
2022/11/30 01:34:17;;;;;;;;;3.00;3.00;;;;;20.12;56.13;101992.34;105589;1288;24664;-68
2022/11/30 01:36:47;;;;;;;;;4.00;4.00;;;;;20.13;56.11;101988.13;105643;1297;19349;-68
2022/11/30 01:39:14;;;;;;;;;3.00;3.00;;;;;20.12;56.10;101985.29;105693;1289;20739;-68
2022/11/30 01:41:42;;;;;;;;;4.00;4.00;;;;;20.12;56.01;101987.08;105692;1281;20107;-68
2022/11/30 01:44:10;;;;;;;;;4.50;4.00;;;;;20.12;55.80;101986.92;105678;1294;19500;-68
2022/11/30 01:46:37;;;;;;;;;5.00;4.00;;;;;20.13;55.95;101989.25;105713;1279;19128;-68
2022/11/30 01:49:05;;;;;;;;;4.00;4.00;;;;;20.13;55.97;101994.32;105673;1279;20410;-68
2022/11/30 01:51:32;;;;;;;;;2.00;2.00;;;;;20.12;55.90;101998.36;105720;1295;21164;-67
2022/11/30 01:54:00;;;;;;;;;4.00;4.00;;;;;20.12;55.73;101995.95;105641;1281;19400;-68
2022/11/30 01:56:27;;;;;;;;;4.00;4.00;;;;;20.12;55.74;101998.90;105702;1295;20562;-67
2022/11/30 01:58:55;;;;;;;;;2.00;2.00;;;;;20.11;55.71;101998.81;105648;1296;19095;-67
2022/11/30 02:01:22;;;;;;;;;4.00;4.00;;;;;20.12;55.85;102000.03;105681;1297;20758;-68
2022/11/30 02:03:49;;;;;;;;;4.00;4.00;;;;;20.13;55.78;101995.95;105648;1297;22970;-67
2022/11/30 02:06:17;;;;;;;;;4.00;4.00;;;;;20.12;55.97;101998.70;105662;1280;19232;-67
2022/11/30 02:08:45;;;;;;;;;3.00;3.00;;;;;20.12;55.89;101998.90;105674;1290;19360;-66
2022/11/30 02:11:12;;;;;;;;;4.00;4.00;;;;;20.11;55.81;101999.36;105682;1279;22496;-67
2022/11/30 02:13:40;;;;;;;;;;;;;;;20.09;55.70;102000.25;105706;1275;19146;-67
2022/11/30 02:16:07;;;;;;;;;5.00;5.00;;;;;20.11;55.71;102004.58;105677;1281;23734;-68
2022/11/30 02:18:35;;;;;;;;;5.00;2.00;;;;;20.11;55.67;102004.48;105682;1297;20078;-68
2022/11/30 02:21:02;;;;;;;;;4.00;4.00;;;;;20.11;55.59;102003.75;105693;1297;19196;-68
2022/11/30 02:23:29;;;;;;;;;4.00;4.00;;;;;20.11;55.73;102007.56;105696;1279;19638;-68
2022/11/30 02:25:58;;;;;;;;;4.00;4.00;;;;;20.10;55.76;102009.98;105729;1279;20296;-69
2022/11/30 02:28:25;;;;;;;;;5.00;4.00;;;;;20.11;55.52;102014.10;105785;1272;19248;-69
2022/11/30 02:30:53;;;;;;;;;4.00;4.00;;;;;20.10;55.61;102015.23;105655;1298;19532;-68
2022/11/30 02:33:20;;;;;;;;;2.00;2.00;;;;;20.10;55.59;102012.36;105678;1279;21698;-69
2022/11/30 02:35:48;;;;;;;;;3.00;3.00;;;;;20.10;55.65;102013.95;105699;1282;19112;-67
2022/11/30 02:38:15;;;;;;;;;4.50;4.00;;;;;20.10;55.61;102014.73;105690;1297;19351;-68
2022/11/30 02:40:42;;;;;;;;;2.00;2.00;;;;;20.09;55.61;102013.67;105710;1297;20214;-68
2022/11/30 02:43:10;;;;;;;;;4.50;4.00;;;;;20.09;55.75;102011.49;105709;1288;23057;-68
2022/11/30 02:45:37;;;;;;;;;4.50;4.00;;;;;20.09;55.56;102016.23;105707;1286;19265;-68
2022/11/30 02:48:05;;;;;;;;;5.00;4.00;;;;;20.09;55.35;102016.46;105600;1295;20281;-67
2022/11/30 02:50:32;;;;;;;;;4.00;4.00;;;;;20.08;55.33;102021.05;105725;1271;19198;-67
2022/11/30 02:53:00;;;;;;;;;4.50;4.00;;;;;20.08;55.46;102019.61;105708;1272;20735;-67
2022/11/30 02:55:27;;;;;;;;;;;;;;;20.09;55.39;102018.63;105675;1281;21546;-68
2022/11/30 02:57:55;;;;;;;;;4.00;4.00;;;;;20.09;55.37;102022.95;105710;1292;19607;-69
2022/11/30 03:00:22;;;;;;;;;4.00;4.00;;;;;20.08;55.30;102025.23;105701;1297;22654;-68
2022/11/30 03:02:50;;;;;;;;;4.00;4.00;;;;;20.07;55.30;102021.68;105676;1282;20334;-68
2022/11/30 03:05:17;;;;;;;;;2.00;2.00;;;;;20.08;55.22;102021.96;105705;1288;21862;-69
2022/11/30 03:07:45;;;;;;;;;4.00;4.00;;;;;20.08;55.28;102025.80;105734;1281;22934;-68
2022/11/30 03:10:12;;;;;;;;;4.00;4.00;;;;;20.08;55.25;102027.95;105707;1279;20177;-69
2022/11/30 03:12:40;;;;;;;;;5.00;4.00;;;;;20.07;55.34;102027.29;105737;1272;22914;-69
2022/11/30 03:15:07;;;;;;;;;2.00;2.00;;;;;20.08;55.38;102028.46;105713;1279;20801;-69
2022/11/30 03:17:34;;;;;;;;;4.00;3.00;;;;;20.08;55.29;102027.54;105662;1297;20495;-70
2022/11/30 03:20:03;;;;;;;;;2.00;2.00;;;;;20.08;55.28;102030.50;105692;1294;19228;-69
2022/11/30 03:22:30;;;;;;;;;5.00;5.00;;;;;20.09;55.13;102024.63;105688;1288;19436;-68
2022/11/30 03:24:58;;;;;;;;;4.00;4.00;;;;;20.08;55.17;102030.12;105641;1279;20096;-68
2022/11/30 03:27:25;;;;;;;;;4.00;4.00;;;;;20.07;55.14;102029.17;105701;1295;20003;-69
2022/11/30 03:29:53;;;;;;;;;5.00;4.00;;;;;20.08;55.18;102030.90;105690;1296;19246;-69
2022/11/30 03:32:20;;;;;;;;;4.50;4.00;;;;;20.07;55.14;102031.27;105692;1297;21538;-69
2022/11/30 03:34:47;;;;;;;;;4.00;2.00;;;;;20.08;55.17;102035.25;105695;1298;19369;-68
2022/11/30 03:37:15;;;;;;;;;2.00;2.00;;;;;20.07;55.04;102034.74;105675;1275;20717;-69
2022/11/30 03:39:42;;;;;;;;;2.00;2.00;;;;;20.07;55.28;102036.00;105664;1280;20076;-68
2022/11/30 03:42:10;;;;;;;;;4.00;2.00;;;;;20.07;54.96;102035.08;105656;1285;21112;-67
2022/11/30 03:44:38;;;;;;;;;2.00;2.00;;;;;20.08;55.13;102039.04;105698;1297;19460;-68
2022/11/30 03:47:05;;;;;;;;;4.00;4.00;;;;;20.07;55.23;102041.64;105683;1300;19935;-71
2022/11/30 03:49:33;;;;;;;;;4.00;4.00;;;;;20.07;54.98;102040.52;105693;1297;19606;-68
2022/11/30 03:52:00;;;;;;;;;4.00;2.00;;;;;20.07;55.12;102042.91;105690;1279;19487;-70
2022/11/30 03:54:27;;;;;;;;;3.00;2.00;;;;;20.07;55.02;102042.20;105691;1279;20237;-69
2022/11/30 03:56:55;;;;;;;;;4.00;2.00;;;;;20.07;55.17;102046.89;105651;1294;19048;-70
2022/11/30 03:59:22;;;;;;;;;4.00;4.00;;;;;20.06;55.06;102046.26;105664;1295;19247;-69
2022/11/30 04:01:50;;;;;;;;;5.00;5.00;;;;;20.06;54.85;102043.73;105732;1297;20275;-69
2022/11/30 04:04:17;;;;;;;;;4.00;4.00;;;;;20.06;55.14;102043.37;105703;1281;20763;-69
2022/11/30 04:06:45;;;;;;;;;4.00;4.00;;;;;20.06;55.05;102044.66;105695;1295;19277;-69
2022/11/30 04:09:12;;;;;;;;;2.00;2.00;;;;;20.06;55.00;102045.52;105707;1297;20288;-69
2022/11/30 04:11:40;;;;;;;;;4.00;4.00;;;;;20.06;55.03;102048.10;105707;1294;24684;-68
2022/11/30 04:14:08;;;;;;;;;4.50;4.00;;;;;20.07;54.99;102048.20;105712;1298;19175;-68
2022/11/30 04:16:36;;;;;;;;;4.00;4.00;;;;;20.06;54.76;102047.55;105694;1272;22953;-70
2022/11/30 04:19:03;;;;;;;;;4.00;4.00;;;;;20.06;55.01;102047.02;105707;1297;19261;-68
2022/11/30 04:21:31;;;;;;;;;4.50;4.50;;;;;20.05;55.03;102046.75;105662;1295;22523;-68
2022/11/30 04:23:59;;;;;;;;;4.50;4.00;;;;;20.04;54.90;102047.75;105695;1287;21623;-69
2022/11/30 04:26:26;;;;;;;;;4.00;4.00;;;;;20.05;55.01;102047.69;105683;1297;19180;-69
2022/11/30 04:28:54;;;;;;;;;4.00;4.00;;;;;20.04;54.80;102048.42;105747;1288;19328;-69
2022/11/30 04:31:21;;;;;;;;;5.00;5.00;;;;;20.04;54.81;102046.62;105692;1295;20131;-68
2022/11/30 04:33:48;;;;;;;;;;;;;;;20.04;54.79;102050.25;105731;1272;19113;-69
2022/11/30 04:36:16;;;;;;;;;4.00;4.00;;;;;20.04;54.75;102054.98;105671;1288;22309;-69
2022/11/30 04:38:44;;;;;;;;;5.00;5.00;;;;;20.05;54.78;102060.35;105664;1300;20276;-68
2022/11/30 04:41:11;;;;;;;;;4.00;4.00;;;;;20.04;54.76;102060.27;105710;1289;19153;-68
2022/11/30 04:43:39;;;;;;;;;5.00;5.00;;;;;20.03;54.74;102061.41;105708;1297;19613;-68
2022/11/30 04:46:06;;;;;;;;;4.50;4.50;;;;;20.04;54.66;102060.08;105692;1297;22287;-67
2022/11/30 04:48:33;;;;;;;;;5.00;4.00;;;;;20.04;54.77;102060.80;105708;1281;19682;-68
2022/11/30 04:51:01;;;;;;;;;2.00;2.00;;;;;20.04;54.61;102068.56;105717;1294;19365;-69
2022/11/30 04:53:28;;;;;;;;;4.00;4.00;;;;;20.04;54.54;102068.05;105724;1289;20290;-68
2022/11/30 04:55:56;;;;;;;;;4.00;3.00;;;;;20.04;54.83;102070.46;105739;1297;23243;-70
2022/11/30 04:58:23;;;;;;;;;7.00;5.00;;;;;20.04;54.71;102075.88;105690;1292;19330;-69
2022/11/30 05:00:51;;;;;;;;;4.00;4.00;;;;;20.04;54.59;102077.73;105719;1292;20062;-68
2022/11/30 05:03:18;;;;;;;;;;;;;;;20.03;54.51;102077.39;105683;1289;22730;-69
2022/11/30 05:05:46;;;;;;;;;4.00;4.00;;;;;20.02;54.64;102079.69;105693;1297;19028;-69
2022/11/30 05:08:13;;;;;;;;;5.00;4.00;;;;;20.02;54.54;102081.63;105688;1279;20493;-68
2022/11/30 05:10:41;;;;;;;;;5.00;5.00;;;;;20.02;54.52;102079.42;105705;1288;19284;-69
2022/11/30 05:13:08;;;;;;;;;2.00;2.00;;;;;20.03;54.64;102085.04;105705;1288;20803;-70
2022/11/30 05:15:35;;;;;;;;;5.00;5.00;;;;;20.02;54.75;102083.63;105721;1297;20401;-68
2022/11/30 05:18:03;;;;;;;;;6.00;5.00;;;;;20.03;54.51;102084.86;105700;1279;19219;-69
2022/11/30 05:20:30;;;;;;;;;7.00;5.00;;;;;20.03;54.62;102084.13;105733;1281;20704;-68
2022/11/30 05:22:58;;;;;;;;;7.00;5.00;;;;;20.03;54.38;102085.40;105707;1297;20132;-67
2022/11/30 05:25:25;;;;;;;;;4.50;4.50;;;;;20.02;54.29;102083.30;105664;1279;19124;-68
2022/11/30 05:27:53;;;;;;;;;5.00;4.00;;;;;20.02;54.40;102088.56;105739;1295;19453;-68
2022/11/30 05:30:20;;;;;;;;;4.00;4.00;;;;;20.02;54.44;102089.80;105653;1272;23554;-67
2022/11/30 05:32:48;;;;;;;;;4.00;4.00;;;;;20.01;54.31;102083.86;105654;1283;19439;-68
2022/11/30 05:35:15;;;;;;;;;4.50;3.00;;;;;20.02;54.54;102089.99;105725;1297;23437;-67
2022/11/30 05:37:43;;;;;;;;;5.00;4.50;;;;;20.02;54.47;102088.91;105711;1288;20086;-67
2022/11/30 05:40:10;;;;;;;;;4.00;4.00;;;;;20.01;54.18;102093.31;105702;1272;19236;-67
2022/11/30 05:42:38;;;;;;;;;7.00;5.00;;;;;20.02;54.36;102092.74;105689;1287;19687;-68
2022/11/30 05:45:05;;;;;;;;;4.00;4.00;;;;;20.00;54.20;102095.21;105667;1285;22993;-67
2022/11/30 05:47:33;;;;;;;;;4.00;4.00;;;;;19.99;54.45;102099.48;105683;1285;19235;-67
2022/11/30 05:50:00;;;;;;;;;5.00;4.50;;;;;20.00;54.23;102103.58;105735;1279;19420;-67
2022/11/30 05:52:28;;;;;;;;;7.00;5.00;;;;;20.00;54.42;102108.81;105683;1279;20395;-68
2022/11/30 05:54:56;;;;;;;;;5.00;5.00;;;;;20.00;54.42;102111.36;105537;1297;19344;-69
2022/11/30 05:57:23;;;;;;;;;6.00;5.00;;;;;20.03;54.34;102109.70;105683;1288;20728;-69
2022/11/30 05:59:51;;;;;;;;;7.00;5.00;;;;;20.06;54.18;102110.90;105725;1297;20125;-69
2022/11/30 06:02:18;;;;;;;;;4.00;4.00;;;;;20.06;54.10;102106.35;105639;1279;23048;-68
2022/11/30 06:04:45;;;;;;;;;6.00;6.00;;;;;20.08;54.33;102113.41;105660;1297;23022;-69
2022/11/30 06:07:13;;;;;;;;;44.00;41.00;;;;;20.11;54.35;102116.21;105699;1275;20185;-70
2022/11/30 06:09:40;;;;;;;;;;;;;;;20.13;54.72;102116.61;105673;1286;19050;-71
2022/11/30 06:12:08;;;;;;;;;86.00;66.00;;;;;20.14;55.27;102116.15;105532;1288;19097;-71
2022/11/30 06:14:35;;;;;;;;;70.00;56.00;;;;;20.13;55.79;102115.30;105562;1279;19962;-69
2022/11/30 06:17:03;;;;;;;;;62.00;51.00;;;;;20.14;55.93;102113.23;105613;1281;23251;-68
2022/11/30 06:19:30;;;;;;;;;48.00;44.00;;;;;20.13;55.84;102113.13;105655;1279;19365;-68
2022/11/30 06:21:58;;;;;;;;;;;;;;;20.12;55.86;102117.02;105658;1294;22815;-69
2022/11/30 06:24:25;;;;;;;;;36.50;35.00;;;;;20.14;56.02;102109.96;105698;1280;22324;-68
2022/11/30 06:26:52;;;;;;;;;29.50;27.50;;;;;20.16;55.91;102115.39;105648;1279;19472;-69
2022/11/30 06:29:20;;;;;;;;;28.00;27.00;;;;;20.16;55.94;102118.48;105656;1298;20735;-69
2022/11/30 06:31:48;;;;;;;;;23.50;21.50;;;;;20.13;55.71;102123.33;105696;1296;19302;-69
2022/11/30 06:34:15;;;;;;;;;23.50;21.00;;;;;20.08;55.63;102130.10;105626;1295;23028;-69
2022/11/30 06:36:43;;;;;;;;;20.00;17.00;;;;;20.06;55.87;102129.00;105579;1280;20172;-69
2022/11/30 06:39:10;;;;;;;;;15.00;15.00;;;;;20.06;55.91;102136.31;105669;1281;19223;-69
2022/11/30 06:41:38;;;;;;;;;16.00;15.00;;;;;20.08;55.53;102128.66;105661;1297;23737;-69
2022/11/30 06:44:05;;;;;;;;;14.50;13.00;;;;;20.10;55.33;102130.07;105695;1297;21751;-69
2022/11/30 06:46:33;;;;;;;;;13.00;12.00;;;;;20.12;55.07;102135.08;105674;1288;21136;-69
2022/11/30 06:49:01;;;;;;;;;20.00;12.00;;;;;20.11;55.18;102132.77;105605;1295;19705;-69
2022/11/30 06:51:28;;;;;;;;;13.00;11.00;;;;;20.09;55.25;102132.59;105637;1279;20103;-72
2022/11/30 06:53:56;;;;;;;;;;;;;;;20.10;55.15;102134.30;105660;1279;19425;-70
2022/11/30 06:56:23;;;;;;;;;10.00;8.00;;;;;20.09;55.15;102134.42;105677;1272;19051;-70
2022/11/30 06:58:53;;;;;;;;;8.00;7.00;;;;;20.07;55.16;102141.30;105618;1297;20071;-67
2022/11/30 07:01:21;;;;;;;;;;;;;;;20.08;54.94;102144.39;105677;1275;23184;-70
2022/11/30 07:03:48;;;;;;;;;10.00;10.00;;;;;20.10;55.11;102144.06;105719;1271;18993;-68
2022/11/30 07:06:16;;;;;;;;;12.00;10.00;;;;;20.11;54.84;102144.95;105647;1279;22477;-69
2022/11/30 07:08:43;;;;;;;;;12.00;10.00;;;;;20.12;55.02;102147.68;105591;1289;19199;-70
2022/11/30 07:11:11;;;;;;;;;7.50;7.00;;;;;20.13;54.82;102150.86;105574;1271;19731;-72
2022/11/30 07:13:39;;;;;;;;;10.00;10.00;;;;;20.12;54.68;102149.72;105586;1279;20326;-70
2022/11/30 07:16:06;;;;;;;;;10.00;10.00;;;;;20.11;55.03;102153.41;105618;1287;24846;-68
2022/11/30 07:18:33;;;;;;;;;;;;;;;20.10;54.90;102156.75;105662;1274;23116;-68
2022/11/30 07:21:01;;;;;;;;;8.00;8.00;;;;;20.09;54.72;102157.05;105656;1279;20419;-68
2022/11/30 07:26:13;;;;;;;;;7.00;7.00;;;;;20.08;55.01;102166.45;105726;1288;20679;-69
2022/11/30 07:28:41;;;;;;;;;9.00;7.50;;;;;20.07;54.69;102168.45;105717;1297;20041;-69
2022/11/30 07:31:08;;;;;;;;;7.00;7.00;;;;;20.07;55.04;102167.05;105680;1297;19792;-68
2022/11/30 07:33:36;;;;;;;;;11.00;8.00;;;;;20.07;54.80;102170.35;105668;1279;19322;-70
2022/11/30 07:36:03;;;;;;;;;8.00;8.00;;;;;20.06;54.76;102177.29;105644;1279;23309;-70
2022/11/30 07:38:31;;;;;;;;;7.00;7.00;;;;;20.06;54.71;102180.40;105665;1288;19345;-69
2022/11/30 07:40:58;;;;;;;;;8.00;7.00;;;;;20.04;54.75;102173.98;105705;1297;22970;-70
2022/11/30 07:43:26;;;;;;;;;7.00;7.00;;;;;20.04;54.53;102182.17;105672;1297;20064;-69
2022/11/30 07:45:53;;;;;;;;;9.00;7.00;;;;;20.03;54.46;102184.05;105665;1279;19356;-69
2022/11/30 07:48:21;;;;;;;;;7.00;7.00;;;;;20.04;54.65;102185.09;105690;1287;20866;-69
2022/11/30 07:50:48;;;;;;;;;7.00;7.00;;;;;20.03;54.57;102185.40;105663;1279;20090;-68
2022/11/30 07:53:16;;;;;;;;;7.00;7.00;;;;;20.02;54.72;102186.73;105629;1271;19052;-70
2022/11/30 07:55:43;;;;;;;;;7.00;5.00;;;;;20.02;54.61;102188.32;105677;1289;19531;-68
2022/11/30 07:58:11;;;;;;;;;9.00;7.00;;;;;20.03;54.61;102182.50;105658;1279;23730;-69
2022/11/30 08:00:38;;;;;;;;;7.00;7.00;;;;;20.03;54.70;102185.39;105692;1288;19305;-69
2022/11/30 08:03:06;;;;;;;;;7.00;5.00;;;;;20.02;54.36;102185.66;105677;1279;21210;-70
2022/11/30 08:05:33;;;;;;;;;5.00;5.00;;;;;20.03;54.58;102187.17;105629;1280;20170;-70
2022/11/30 08:08:01;;;;;;;;;8.00;7.00;;;;;20.02;54.54;102189.78;105671;1285;23029;-70
2022/11/30 08:10:28;;;;;;;;;4.00;4.00;;;;;20.03;54.44;102190.10;105650;1295;19269;-68
2022/11/30 08:12:56;;;;;;;;;6.00;6.00;;;;;20.02;54.25;102186.71;105642;1295;20138;-69
2022/11/30 08:15:23;;;;;;;;;8.00;7.00;;;;;20.00;54.11;102184.11;105636;1295;23123;-70
2022/11/30 08:17:53;;;;;;;;;7.33;5.00;;;;;20.02;54.27;102191.82;105667;1287;19359;-69
2022/11/30 08:20:22;;;;;;;;;7.50;6.00;;;;;20.01;54.35;102192.80;105633;1279;21823;-70
2022/11/30 08:22:51;;;;;;;;;;;;;;;20.01;54.13;102198.41;105687;1290;23672;-69
2022/11/30 08:25:19;;;;;;;;;7.00;6.00;;;;;20.01;54.17;102199.47;105688;1279;20852;-70
2022/11/30 08:27:46;;;;;;;;;5.00;5.00;;;;;20.01;54.24;102200.41;105696;1295;20054;-71
2022/11/30 08:30:14;;;;;;;;;7.00;7.00;;;;;20.00;54.24;102203.56;105666;1292;19297;-71
2022/11/30 08:32:41;;;;;;;;;5.00;5.00;;;;;20.00;54.12;102201.96;105662;1296;19574;-70
2022/11/30 08:35:09;;;;;;;;;7.00;5.00;;;;;19.98;53.99;102203.54;105689;1288;20509;-72
2022/11/30 08:37:37;;;;;;;;;8.00;8.00;;;;;20.00;53.84;102206.09;105685;1295;21987;-69
2022/11/30 08:40:04;;;;;;;;;7.00;6.00;;;;;20.01;53.80;102204.54;105722;1295;19335;-71
2022/11/30 08:42:32;;;;;;;;;7.00;7.00;;;;;20.04;53.89;102208.90;105691;1276;21729;-69
2022/11/30 08:44:59;;;;;;;;;4.67;4.33;;;;;20.06;53.69;102211.98;105627;1297;19683;-69
2022/11/30 08:47:27;;;;;;;;;5.00;5.00;;;;;20.05;53.68;102213.64;105659;1287;19241;-69
2022/11/30 08:49:54;;;;;;;;;8.00;7.00;;;;;20.05;53.65;102211.38;105678;1289;20308;-68
2022/11/30 08:52:22;;;;;;;;;8.00;8.00;;;;;20.04;53.64;102217.73;105652;1295;19307;-68
2022/11/30 08:54:49;;;;;;;;;5.00;5.00;;;;;20.06;53.83;102219.60;105660;1279;19532;-67
2022/11/30 08:57:16;;;;;;;;;10.00;7.00;;;;;20.05;53.82;102220.23;105690;1297;20087;-69
2022/11/30 08:59:44;;;;;;;;;7.00;5.00;;;;;20.05;53.55;102219.70;105650;1297;23059;-68
2022/11/30 09:02:12;;;;;;;;;7.00;7.00;;;;;20.03;53.66;102220.58;105652;1300;19700;-69
2022/11/30 09:04:40;;;;;;;;;5.00;5.00;;;;;20.03;53.91;102225.68;105691;1297;20112;-69
2022/11/30 09:07:08;;;;;;;;;5.00;5.00;;;;;20.01;53.57;102227.60;105697;1275;19460;-69
2022/11/30 09:09:36;;;;;;;;;5.00;5.00;;;;;20.02;53.68;102229.32;105656;1276;21735;-67
2022/11/30 09:12:03;;;;;;;;;5.00;5.00;;;;;20.04;53.50;102228.44;105672;1297;20616;-68
2022/11/30 09:14:31;;;;;;;;;8.00;8.00;;;;;20.03;53.37;102230.20;105684;1297;19693;-69
2022/11/30 09:16:59;;;;;;;;;7.00;5.00;;;;;20.03;53.74;102234.14;105626;1286;23239;-68
2022/11/30 09:19:26;;;;;;;;;7.00;7.00;;;;;20.05;53.64;102235.13;105523;1288;20109;-67
2022/11/30 09:21:54;;;;;;;;;7.00;6.00;;;;;20.06;53.78;102234.70;105535;1282;23232;-68
2022/11/30 09:24:21;;;;;;;;;7.00;5.00;;;;;20.04;53.64;102232.34;105648;1297;19608;-68
2022/11/30 09:26:49;;;;;;;;;6.00;6.00;;;;;20.04;53.59;102236.08;105581;1297;23952;-67
2022/11/30 09:29:16;;;;;;;;;10.00;7.00;;;;;20.03;53.24;102235.27;105669;1279;19252;-67
2022/11/30 09:31:44;;;;;;;;;7.00;6.00;;;;;20.04;53.34;102236.45;105651;1297;19743;-67
2022/11/30 09:34:12;;;;;;;;;5.00;5.00;;;;;20.04;53.26;102238.27;105657;1294;20493;-67
2022/11/30 09:36:39;;;;;;;;;5.00;5.00;;;;;20.05;53.37;102238.59;105651;1279;19054;-68
2022/11/30 09:39:07;;;;;;;;;7.50;7.50;;;;;20.05;53.35;102242.95;105628;1297;19599;-68
2022/11/30 09:41:35;;;;;;;;;6.00;5.00;;;;;20.05;53.46;102241.63;105653;1273;20087;-67
2022/11/30 09:44:03;;;;;;;;;;;;;;;20.06;53.34;102240.47;105670;1297;23079;-66
2022/11/30 09:46:30;;;;;;;;;6.00;4.50;;;;;20.07;53.30;102243.64;105658;1298;18940;-67
2022/11/30 09:48:58;;;;;;;;;;;;;;;20.08;53.19;102242.13;105659;1290;20359;-66
2022/11/30 09:51:26;;;;;;;;;8.00;7.00;;;;;20.09;53.10;102242.33;105678;1278;20719;-67
2022/11/30 09:53:53;;;;;;;;;7.00;5.00;;;;;20.09;53.49;102244.30;105667;1288;23695;-66
2022/11/30 09:56:21;;;;;;;;;7.00;5.00;;;;;20.07;53.64;102243.05;105651;1282;22844;-67
2022/11/30 09:58:49;;;;;;;;;7.00;7.00;;;;;20.07;54.05;102245.46;105730;1281;19219;-68
2022/11/30 10:01:17;;;;;;;;;5.00;5.00;;;;;20.05;54.16;102245.23;105705;1294;19258;-67
2022/11/30 10:03:45;;;;;;;;;7.00;7.00;;;;;20.04;54.23;102245.35;105684;1279;22514;-66
2022/11/30 10:06:12;;;;;;;;;6.00;5.00;;;;;20.04;53.97;102241.33;105643;1297;19206;-66
2022/11/30 10:08:40;;;;;;;;;6.00;6.00;;;;;20.02;54.21;102240.75;105673;1296;19526;-67
2022/11/30 10:11:07;;;;;;;;;7.00;5.00;;;;;20.03;54.01;102244.91;105699;1295;20426;-67
2022/11/30 10:13:35;;;;;;;;;7.00;7.00;;;;;20.04;53.80;102242.98;105634;1287;19179;-68
2022/11/30 10:16:02;;;;;;;;;8.00;8.00;;;;;20.08;53.84;102245.73;105607;1289;19313;-68
2022/11/30 10:18:30;;;;;;;;;7.00;6.00;;;;;20.09;53.67;102242.15;105641;1297;23634;-68
2022/11/30 10:20:57;;;;;;;;;5.00;5.00;;;;;20.09;53.97;102241.06;105670;1279;19320;-68
2022/11/30 10:23:25;;;;;;;;;5.00;5.00;;;;;20.11;53.82;102239.69;105643;1288;20792;-67
2022/11/30 10:25:53;;;;;;;;;7.00;7.00;;;;;20.12;53.74;102242.64;105643;1279;20301;-68
2022/11/30 10:28:20;;;;;;;;;;;;;;;20.10;53.73;102245.73;105616;1295;23675;-68
2022/11/30 10:30:48;;;;;;;;;5.00;5.00;;;;;20.09;53.92;102241.99;105652;1279;19044;-69
2022/11/30 10:33:15;;;;;;;;;8.00;7.00;;;;;20.09;53.71;102239.66;105694;1294;20300;-68
2022/11/30 10:35:44;;;;;;;;;7.00;7.00;;;;;20.09;53.64;102239.27;105645;1295;23553;-67
2022/11/30 10:38:11;;;;;;;;;7.00;5.00;;;;;20.09;53.95;102238.89;105704;1296;19597;-70
2022/11/30 10:40:39;;;;;;;;;8.00;7.00;;;;;20.10;53.82;102236.13;105672;1297;20324;-70
2022/11/30 10:43:06;;;;;;;;;7.00;5.00;;;;;20.11;53.82;102230.61;105653;1296;19581;-66
2022/11/30 10:45:34;;;;;;;;;7.00;7.00;;;;;20.12;53.77;102232.84;105625;1279;19790;-68
2022/11/30 10:48:01;;;;;;;;;10.00;10.00;;;;;20.11;53.67;102234.71;105635;1275;21418;-68
2022/11/30 10:50:29;;;;;;;;;5.00;5.00;;;;;20.12;53.60;102229.60;105666;1271;19258;-69
2022/11/30 10:52:56;;;;;;;;;;;;;;;20.13;53.79;102225.34;105671;1297;19535;-68
2022/11/30 10:55:24;;;;;;;;;10.00;8.00;;;;;20.13;53.68;102222.04;105616;1279;23398;-68
2022/11/30 10:57:52;;;;;;;;;7.00;7.00;;;;;20.13;53.97;102219.69;105683;1280;19320;-68
2022/11/30 11:00:20;;;;;;;;;10.00;8.00;;;;;20.13;54.05;102222.39;105783;1279;21109;-67
2022/11/30 11:02:48;;;;;;;;;8.00;8.00;;;;;20.14;54.22;102220.26;105578;1279;23568;-65
2022/11/30 11:05:15;;;;;;;;;7.00;7.00;;;;;20.15;54.48;102215.50;105580;1295;19218;-69
2022/11/30 11:07:43;;;;;;;;;5.00;5.00;;;;;20.16;54.45;102209.09;105664;1279;20793;-67
2022/11/30 11:10:11;;;;;;;;;8.00;5.00;;;;;20.17;54.58;102206.99;105602;1281;24754;-66
2022/11/30 11:12:39;;;;;;;;;5.00;5.00;;;;;20.17;54.32;102210.60;105642;1272;19279;-67
2022/11/30 11:15:06;;;;;;;;;5.00;5.00;;;;;20.15;54.54;102208.92;105589;1290;19291;-67
2022/11/30 11:17:34;;;;;;;;;10.00;7.00;;;;;20.15;54.66;102207.66;105595;1297;23838;-66
2022/11/30 11:20:01;;;;;;;;;8.00;8.00;;;;;20.19;54.84;102212.92;105657;1297;19837;-66
2022/11/30 11:22:29;;;;;;;;;11.00;8.00;;;;;20.21;54.76;102210.02;105622;1297;19488;-69